Time;durP1;ratioP1;P1;durP2;ratioP2;P2;SDS_P1;SDS_P2;PMS_P1;PMS_P2;Temp;Humidity;BMP_temperature;BMP_pressure;BME280_temperature;BME280_humidity;BME280_pressure;Samples;Min_cycle;Max_cycle;Signal;HPM_P1;HPM_P2
2021/03/14 00:02:14;;;;;;;1.00;0.80;;;6.50;99.90;;;;;;5054266;28;20485;-69
2021/03/14 00:04:41;;;;;;;1.00;0.80;;;6.60;99.90;;;;;;5046862;28;20946;-71
2021/03/14 00:07:08;;;;;;;1.77;1.67;;;6.60;99.90;;;;;;5050501;28;20455;-70
2021/03/14 00:09:35;;;;;;;1.33;1.23;;;6.60;99.90;;;;;;5054114;28;20517;-71
2021/03/14 00:12:02;;;;;;;3.17;1.70;;;6.60;99.90;;;;;;5050097;28;21024;-70
2021/03/14 00:14:29;;;;;;;1.63;0.97;;;6.50;99.90;;;;;;5051799;28;20481;-70
2021/03/14 00:16:55;;;;;;;3.00;1.43;;;6.50;99.90;;;;;;5047715;28;20473;-71
2021/03/14 00:19:22;;;;;;;1.33;1.13;;;6.50;99.90;;;;;;5047377;28;20500;-70
2021/03/14 00:21:49;;;;;;;5.43;1.57;;;6.60;99.90;;;;;;5056511;28;20486;-71
2021/03/14 00:24:16;;;;;;;2.70;1.47;;;6.70;99.90;;;;;;5046895;28;20533;-70
2021/03/14 00:26:43;;;;;;;1.53;0.80;;;6.60;99.90;;;;;;5042579;28;20490;-71
2021/03/14 00:29:10;;;;;;;1.50;1.40;;;6.60;99.90;;;;;;5044814;28;20502;-70
2021/03/14 00:31:36;;;;;;;2.30;1.00;;;6.50;99.90;;;;;;5043578;28;20472;-71
2021/03/14 00:34:03;;;;;;;22.10;2.10;;;6.60;99.90;;;;;;5048067;28;20517;-71
2021/03/14 00:36:31;;;;;;;1.30;1.00;;;6.60;99.90;;;;;;5042753;28;20468;-70
2021/03/14 00:38:58;;;;;;;2.90;1.70;;;6.60;99.90;;;;;;5044157;28;21059;-70
2021/03/14 00:41:25;;;;;;;1.57;1.47;;;6.60;99.90;;;;;;5025032;28;20484;-69
2021/03/14 00:43:52;;;;;;;1.80;1.53;;;6.60;99.90;;;;;;5040390;28;20528;-71
2021/03/14 00:46:19;;;;;;;3.13;1.23;;;6.60;99.90;;;;;;5042743;28;20828;-69
2021/03/14 00:48:45;;;;;;;1.50;1.40;;;6.60;99.90;;;;;;5048059;28;20458;-72
2021/03/14 00:51:12;;;;;;;4.73;1.80;;;6.60;99.90;;;;;;5041147;28;20503;-72
2021/03/14 00:53:39;;;;;;;1.13;1.03;;;6.60;99.90;;;;;;5045674;28;20541;-71
2021/03/14 00:56:06;;;;;;;1.90;1.50;;;6.50;99.90;;;;;;5041469;28;20425;-72
2021/03/14 00:58:33;;;;;;;1.67;1.47;;;6.50;99.90;;;;;;5044816;28;20463;-71
2021/03/14 01:01:00;;;;;;;1.83;1.73;;;6.50;99.90;;;;;;5043164;28;20506;-72
2021/03/14 01:03:27;;;;;;;0.90;0.70;;;6.40;99.90;;;;;;5043134;28;20498;-72
2021/03/14 01:05:53;;;;;;;1.83;1.63;;;6.40;99.90;;;;;;5044169;28;20459;-71
2021/03/14 01:08:20;;;;;;;1.53;1.43;;;6.30;99.90;;;;;;5047216;28;20454;-72
2021/03/14 01:10:47;;;;;;;3.10;1.70;;;6.30;99.90;;;;;;5037669;28;20572;-71
2021/03/14 01:13:14;;;;;;;1.50;1.17;;;6.30;99.90;;;;;;5041464;28;20474;-71
2021/03/14 01:15:42;;;;;;;1.17;1.07;;;6.10;99.90;;;;;;5037941;28;20480;-71
2021/03/14 01:18:08;;;;;;;1.00;0.80;;;6.10;99.90;;;;;;5041378;28;20433;-71
2021/03/14 01:20:35;;;;;;;1.20;1.00;;;6.00;99.90;;;;;;5044223;28;20533;-72
2021/03/14 01:23:02;;;;;;;5.40;2.00;;;6.00;99.90;;;;;;5050569;28;20859;-71
2021/03/14 01:25:29;;;;;;;2.00;1.47;;;6.00;99.90;;;;;;5054111;28;21960;-71
2021/03/14 01:27:56;;;;;;;1.40;1.10;;;6.10;99.90;;;;;;5043912;28;20474;-71
2021/03/14 01:30:23;;;;;;;3.60;1.90;;;6.10;99.90;;;;;;5041990;28;20430;-71
2021/03/14 01:32:50;;;;;;;4.70;1.90;;;6.10;99.90;;;;;;5043676;28;20628;-71
2021/03/14 01:35:17;;;;;;;2.60;1.70;;;6.10;99.90;;;;;;5052041;28;20466;-71
2021/03/14 01:37:45;;;;;;;1.20;1.07;;;6.10;99.90;;;;;;5049437;28;20462;-72
2021/03/14 01:40:13;;;;;;;1.57;1.13;;;6.10;99.90;;;;;;5057667;28;20584;-72
2021/03/14 01:42:40;;;;;;;1.63;1.20;;;6.00;99.90;;;;;;5050162;28;20509;-71
2021/03/14 01:45:08;;;;;;;1.20;1.10;;;6.00;99.90;;;;;;5049970;28;20546;-71
2021/03/14 01:47:36;;;;;;;1.03;0.93;;;5.90;99.90;;;;;;5050817;28;20454;-71
2021/03/14 01:50:05;;;;;;;4.13;1.93;;;5.80;99.90;;;;;;5054337;28;20452;-71
2021/03/14 01:52:32;;;;;;;6.10;1.30;;;5.90;99.90;;;;;;5048743;28;20438;-71
2021/03/14 01:54:59;;;;;;;2.37;1.30;;;5.90;99.90;;;;;;5046996;28;20449;-72
2021/03/14 01:57:27;;;;;;;2.57;1.43;;;5.90;99.90;;;;;;5046804;28;20482;-71
2021/03/14 01:59:54;;;;;;;2.97;1.33;;;6.00;99.90;;;;;;5053623;28;20487;-71
2021/03/14 02:02:21;;;;;;;0.97;0.77;;;6.00;99.90;;;;;;5052502;28;20478;-71
2021/03/14 02:04:48;;;;;;;1.67;1.57;;;6.10;99.90;;;;;;5050014;28;20453;-70
2021/03/14 02:07:16;;;;;;;7.13;2.03;;;6.10;99.90;;;;;;5034111;28;20797;-72
2021/03/14 02:09:42;;;;;;;1.50;1.40;;;6.10;99.90;;;;;;5052612;28;20972;-71
2021/03/14 02:12:11;;;;;;;1.57;1.33;;;6.10;99.90;;;;;;5052722;28;20545;-71
2021/03/14 02:14:39;;;;;;;1.07;0.97;;;6.10;99.90;;;;;;5050800;28;20846;-72
2021/03/14 02:17:09;;;;;;;1.30;1.20;;;6.10;99.90;;;;;;5045988;28;20562;-71
2021/03/14 02:19:39;;;;;;;4.93;1.57;;;6.10;99.90;;;;;;5048889;28;20623;-71
2021/03/14 02:22:06;;;;;;;1.37;1.00;;;6.10;99.90;;;;;;5051149;28;20489;-71
2021/03/14 02:24:41;;;;;;;3.43;3.13;;;6.20;99.90;;;;;;5060262;28;20422;-71
2021/03/14 02:27:09;;;;;;;1.10;1.00;;;6.20;99.90;;;;;;5058736;28;20440;-71
2021/03/14 02:29:40;;;;;;;3.83;1.70;;;6.30;99.90;;;;;;5052108;28;20478;-71
2021/03/14 02:32:09;;;;;;;1.53;1.10;;;6.30;99.90;;;;;;5050845;28;20463;-71
2021/03/14 02:34:38;;;;;;;2.10;1.20;;;6.20;99.90;;;;;;5051183;28;20554;-71
2021/03/14 02:37:07;;;;;;;4.50;1.87;;;6.20;99.90;;;;;;5050972;28;20522;-71
2021/03/14 02:39:36;;;;;;;2.00;1.50;;;6.30;99.90;;;;;;5054522;28;20748;-70
2021/03/14 02:42:05;;;;;;;1.83;1.23;;;6.30;99.90;;;;;;5055421;28;20559;-71
2021/03/14 02:44:36;;;;;;;1.37;1.10;;;6.20;99.90;;;;;;5046751;28;20458;-71
2021/03/14 02:47:04;;;;;;;1.17;1.03;;;6.20;99.90;;;;;;5048003;28;20530;-70
2021/03/14 02:49:31;;;;;;;3.83;1.97;;;6.10;99.90;;;;;;5052560;28;20465;-70
2021/03/14 02:51:59;;;;;;;1.93;0.90;;;6.10;99.90;;;;;;5051977;28;22138;-70
2021/03/14 02:54:27;;;;;;;1.93;1.63;;;5.90;99.90;;;;;;5055359;28;20453;-70
2021/03/14 02:56:54;;;;;;;1.50;1.33;;;5.90;99.90;;;;;;5048640;28;20531;-70
2021/03/14 02:59:22;;;;;;;3.00;1.70;;;5.90;99.90;;;;;;5052770;28;20438;-71
2021/03/14 03:01:51;;;;;;;1.20;1.00;;;5.80;99.90;;;;;;5055063;28;20563;-71
2021/03/14 03:04:18;;;;;;;15.90;2.00;;;5.80;99.90;;;;;;5055108;28;20541;-71
2021/03/14 03:06:46;;;;;;;1.70;1.60;;;5.90;99.90;;;;;;5051677;28;20812;-71
2021/03/14 03:09:13;;;;;;;1.47;1.30;;;6.00;99.90;;;;;;5055366;28;20471;-71
2021/03/14 03:11:41;;;;;;;2.90;2.70;;;5.90;99.90;;;;;;5052811;28;20485;-70
2021/03/14 03:14:12;;;;;;;1.77;1.53;;;5.90;99.90;;;;;;5054565;28;20443;-70
2021/03/14 03:16:40;;;;;;;2.30;1.90;;;6.00;99.90;;;;;;5058809;28;20436;-70
2021/03/14 03:19:10;;;;;;;1.00;0.90;;;6.00;99.90;;;;;;5050026;28;20981;-70
2021/03/14 03:21:38;;;;;;;4.50;2.13;;;5.90;99.90;;;;;;5050458;28;20461;-70
2021/03/14 03:24:06;;;;;;;1.13;1.03;;;5.90;99.90;;;;;;5054569;28;20457;-70
2021/03/14 03:26:33;;;;;;;2.17;1.40;;;5.90;99.90;;;;;;5057444;28;20497;-70
2021/03/14 03:28:59;;;;;;;3.87;2.53;;;5.90;99.90;;;;;;5058460;28;20537;-70
2021/03/14 03:31:26;;;;;;;9.23;1.97;;;5.90;99.90;;;;;;5058720;28;20457;-70
2021/03/14 03:33:53;;;;;;;1.77;1.67;;;5.90;99.90;;;;;;5056607;28;20458;-71
2021/03/14 03:36:20;;;;;;;3.57;2.40;;;6.00;99.90;;;;;;5050655;28;20520;-71
2021/03/14 03:38:47;;;;;;;3.23;2.53;;;5.90;99.90;;;;;;5054651;28;20452;-70
2021/03/14 03:41:14;;;;;;;2.17;1.80;;;5.90;99.90;;;;;;5053032;28;20998;-70
2021/03/14 03:43:43;;;;;;;2.80;2.60;;;6.00;99.90;;;;;;5055186;28;20466;-70
2021/03/14 03:46:11;;;;;;;2.70;2.50;;;6.00;99.90;;;;;;5054469;28;20939;-71
2021/03/14 03:48:43;;;;;;;4.40;2.17;;;6.00;99.90;;;;;;5047164;28;21123;-71
2021/03/14 03:51:10;;;;;;;4.17;3.87;;;6.10;99.90;;;;;;5055798;28;20470;-71
2021/03/14 03:53:39;;;;;;;5.60;2.70;;;6.10;99.90;;;;;;5051881;28;20494;-70
2021/03/14 03:56:07;;;;;;;4.63;3.40;;;6.10;99.90;;;;;;5050437;28;20793;-71
2021/03/14 03:58:34;;;;;;;3.37;3.07;;;6.00;99.90;;;;;;5047025;28;21147;-70
2021/03/14 04:01:03;;;;;;;8.33;2.80;;;6.10;99.90;;;;;;5058625;28;20606;-70
2021/03/14 04:03:31;;;;;;;1.77;1.40;;;6.00;99.90;;;;;;5052959;28;20471;-70
2021/03/14 04:06:00;;;;;;;3.00;2.70;;;6.00;99.90;;;;;;5052317;28;20458;-70
2021/03/14 04:08:27;;;;;;;3.53;2.00;;;6.00;99.90;;;;;;5049690;28;22240;-71
2021/03/14 04:10:54;;;;;;;7.23;2.50;;;6.10;99.90;;;;;;5053714;28;20474;-71
2021/03/14 04:13:22;;;;;;;5.07;2.90;;;6.10;99.90;;;;;;5049711;28;20471;-72
2021/03/14 04:15:49;;;;;;;8.07;3.30;;;6.00;99.90;;;;;;5050967;28;20460;-71
2021/03/14 04:18:17;;;;;;;3.43;2.10;;;5.90;99.90;;;;;;5047182;28;20434;-71
2021/03/14 04:20:45;;;;;;;3.07;2.43;;;6.00;99.90;;;;;;5050516;28;20536;-72
2021/03/14 04:23:15;;;;;;;2.97;2.20;;;5.90;99.90;;;;;;5050968;28;20533;-72
2021/03/14 04:25:43;;;;;;;1.57;1.47;;;5.90;99.90;;;;;;5051199;28;20458;-70
2021/03/14 04:28:12;;;;;;;2.83;2.00;;;5.80;99.90;;;;;;5055339;28;20602;-70
2021/03/14 04:30:40;;;;;;;18.70;3.67;;;5.80;99.90;;;;;;5059772;28;20482;-70
2021/03/14 04:33:09;;;;;;;1.83;1.73;;;5.90;99.90;;;;;;5058923;28;20469;-71
2021/03/14 04:35:39;;;;;;;2.30;2.20;;;5.90;99.90;;;;;;5049960;28;20427;-70
2021/03/14 04:38:06;;;;;;;5.03;2.40;;;5.90;99.90;;;;;;5048968;28;20528;-70
2021/03/14 04:40:34;;;;;;;2.53;2.33;;;5.90;99.90;;;;;;5050695;28;20434;-69
2021/03/14 04:43:02;;;;;;;4.70;2.13;;;5.90;99.90;;;;;;5048716;28;20510;-70
2021/03/14 04:45:31;;;;;;;2.97;2.67;;;6.00;99.90;;;;;;5054096;28;20528;-70
2021/03/14 04:47:58;;;;;;;4.67;1.77;;;5.90;99.90;;;;;;5052078;28;20483;-72
2021/03/14 04:50:28;;;;;;;7.27;3.40;;;5.90;99.90;;;;;;5048474;28;20442;-70
2021/03/14 04:52:57;;;;;;;11.60;2.23;;;5.80;99.90;;;;;;5052233;28;20941;-71
2021/03/14 04:55:26;;;;;;;5.33;2.30;;;5.80;99.90;;;;;;5049390;28;20422;-70
2021/03/14 04:57:55;;;;;;;1.53;1.03;;;5.80;99.90;;;;;;5049975;28;20839;-70
2021/03/14 05:00:22;;;;;;;2.37;2.03;;;5.80;99.90;;;;;;5040069;28;20600;-69
2021/03/14 05:02:55;;;;;;;2.53;1.93;;;5.80;99.90;;;;;;5051904;28;20526;-70
2021/03/14 05:05:23;;;;;;;6.73;4.33;;;5.80;99.90;;;;;;5050899;28;20950;-70
2021/03/14 05:07:52;;;;;;;2.77;2.20;;;5.70;99.90;;;;;;5051353;28;21080;-70
2021/03/14 05:10:20;;;;;;;4.80;1.63;;;5.70;99.90;;;;;;5056747;28;20885;-70
2021/03/14 05:12:48;;;;;;;1.87;1.67;;;5.80;99.90;;;;;;5048701;28;20458;-69
2021/03/14 05:15:16;;;;;;;2.60;1.47;;;5.80;99.90;;;;;;5051078;28;20535;-70
2021/03/14 05:17:45;;;;;;;1.23;1.13;;;5.80;99.90;;;;;;5054634;28;20437;-70
2021/03/14 05:20:15;;;;;;;6.23;2.00;;;5.80;99.90;;;;;;5055353;28;20451;-70
2021/03/14 05:22:43;;;;;;;4.00;2.17;;;5.90;99.90;;;;;;5058249;28;20501;-70
2021/03/14 05:25:11;;;;;;;3.57;2.13;;;6.00;99.90;;;;;;5048987;28;20419;-70
2021/03/14 05:27:38;;;;;;;1.87;1.53;;;5.90;99.90;;;;;;5049753;28;20441;-70
2021/03/14 05:30:06;;;;;;;1.50;1.33;;;5.90;99.90;;;;;;5047634;28;20587;-70
2021/03/14 05:32:33;;;;;;;3.50;2.10;;;6.00;99.90;;;;;;5050607;28;20477;-70
2021/03/14 05:35:00;;;;;;;2.63;2.20;;;6.00;99.90;;;;;;5056053;28;20455;-70
2021/03/14 05:37:27;;;;;;;4.10;1.43;;;6.10;99.90;;;;;;5053692;28;20456;-72
2021/03/14 05:39:54;;;;;;;2.20;2.00;;;6.10;99.90;;;;;;5055016;28;20538;-70
2021/03/14 05:42:21;;;;;;;4.90;3.33;;;6.00;99.90;;;;;;5042462;28;20498;-70
2021/03/14 05:44:48;;;;;;;5.13;2.83;;;6.00;99.90;;;;;;5047732;28;20518;-70
2021/03/14 05:47:21;;;;;;;3.47;1.67;;;5.90;99.90;;;;;;5076654;27;793616;-71
2021/03/14 05:49:47;;;;;;;4.80;3.17;;;5.90;99.90;;;;;;5062681;28;20216;-70
2021/03/14 05:52:17;;;;;;;4.20;2.43;;;5.90;99.90;;;;;;5036515;28;20502;-70
2021/03/14 05:54:46;;;;;;;5.03;3.33;;;5.90;99.90;;;;;;5065761;28;20465;-70
2021/03/14 05:57:16;;;;;;;2.43;2.17;;;5.90;99.90;;;;;;5058873;28;20474;-71
2021/03/14 05:59:43;;;;;;;3.20;2.90;;;5.90;99.90;;;;;;5057667;28;20569;-70
2021/03/14 06:02:10;;;;;;;4.43;2.53;;;5.90;99.90;;;;;;5055609;28;20545;-71
2021/03/14 06:04:38;;;;;;;3.63;1.37;;;6.00;99.90;;;;;;5043348;28;20421;-71
2021/03/14 06:07:05;;;;;;;3.27;2.87;;;5.90;99.90;;;;;;5062501;28;20453;-71
2021/03/14 06:09:31;;;;;;;1.03;0.90;;;5.90;99.90;;;;;;5064624;28;20449;-71
2021/03/14 06:11:58;;;;;;;6.47;3.43;;;5.90;99.90;;;;;;5063288;28;20550;-71
2021/03/14 06:14:24;;;;;;;14.63;4.10;;;6.00;99.90;;;;;;5061130;28;20429;-71
2021/03/14 06:16:51;;;;;;;5.40;3.50;;;5.90;99.90;;;;;;5059755;28;20463;-72
2021/03/14 06:19:18;;;;;;;10.23;3.67;;;5.90;99.90;;;;;;5058851;28;20888;-72
2021/03/14 06:21:46;;;;;;;2.27;2.07;;;5.90;99.90;;;;;;5054146;28;20489;-72
2021/03/14 06:24:13;;;;;;;7.60;2.80;;;5.90;99.90;;;;;;5066126;28;20448;-72
2021/03/14 06:26:41;;;;;;;4.83;1.57;;;5.80;99.90;;;;;;5062685;28;20461;-73
2021/03/14 06:29:25;;;;;;;4.50;3.43;;;5.80;99.90;;;;;;5059406;28;20517;-72
2021/03/14 06:31:55;;;;;;;4.67;2.17;;;5.90;99.90;;;;;;5055693;28;20485;-70
2021/03/14 06:34:29;;;;;;;1.30;1.10;;;5.90;99.90;;;;;;5063212;28;20877;-70
2021/03/14 06:36:58;;;;;;;3.53;1.67;;;5.90;99.90;;;;;;5063286;28;20428;-72
2021/03/14 06:39:27;;;;;;;5.20;3.73;;;5.70;99.90;;;;;;5058928;28;20861;-70
2021/03/14 06:41:54;;;;;;;4.07;1.23;;;5.60;99.90;;;;;;5060512;28;20502;-73
2021/03/14 06:44:26;;;;;;;3.47;3.17;;;5.70;99.90;;;;;;5062303;28;21115;-71
2021/03/14 06:46:53;;;;;;;6.03;3.70;;;5.70;99.90;;;;;;5062038;28;20490;-69
2021/03/14 06:49:21;;;;;;;1.67;1.57;;;5.80;99.90;;;;;;5060251;28;20438;-71
2021/03/14 06:51:50;;;;;;;2.27;2.10;;;5.80;99.90;;;;;;5059774;28;20535;-70
2021/03/14 06:54:20;;;;;;;3.43;2.27;;;5.70;99.90;;;;;;5063092;28;20475;-70
2021/03/14 06:57:08;;;;;;;1.30;1.20;;;5.80;99.90;;;;;;5055895;28;20454;-71
2021/03/14 06:59:36;;;;;;;2.60;2.00;;;5.90;99.90;;;;;;5045753;28;20451;-70
2021/03/14 07:02:04;;;;;;;2.53;1.50;;;6.00;99.90;;;;;;5045060;28;20874;-70
2021/03/14 07:04:36;;;;;;;5.73;2.70;;;6.00;99.90;;;;;;5047923;28;20508;-70
2021/03/14 07:07:03;;;;;;;6.40;2.67;;;6.00;99.90;;;;;;5046136;28;20478;-70
2021/03/14 07:09:31;;;;;;;4.23;3.10;;;6.00;99.90;;;;;;5044140;28;20477;-71
2021/03/14 07:11:58;;;;;;;7.87;4.23;;;6.00;99.90;;;;;;5042347;28;20554;-71
2021/03/14 07:14:26;;;;;;;9.70;4.60;;;6.00;99.90;;;;;;5032791;28;20437;-71
2021/03/14 07:16:53;;;;;;;7.80;2.13;;;6.20;99.90;;;;;;5041030;28;20843;-70
2021/03/14 07:19:25;;;;;;;16.67;3.90;;;6.20;99.90;;;;;;5046669;28;20464;-72
2021/03/14 07:22:02;;;;;;;2.03;1.37;;;6.10;99.90;;;;;;5045369;28;20995;-71
2021/03/14 07:24:34;;;;;;;4.53;2.60;;;6.10;99.90;;;;;;5047001;28;20802;-71
2021/03/14 07:27:04;;;;;;;4.00;3.17;;;6.00;99.90;;;;;;5044053;28;20438;-71
2021/03/14 07:29:31;;;;;;;10.03;1.83;;;6.10;99.90;;;;;;5041971;28;20568;-71
2021/03/14 07:31:58;;;;;;;2.43;1.70;;;6.10;99.90;;;;;;5045188;28;20570;-71
2021/03/14 07:34:26;;;;;;;2.57;1.83;;;6.20;99.90;;;;;;5049648;28;20519;-71
2021/03/14 07:36:53;;;;;;;5.13;3.50;;;6.10;99.90;;;;;;5043575;28;20453;-71
2021/03/14 07:39:20;;;;;;;5.13;2.83;;;6.00;99.90;;;;;;5047584;28;20445;-71
2021/03/14 07:41:48;;;;;;;2.60;2.37;;;5.90;99.90;;;;;;5049381;28;20518;-71
2021/03/14 07:44:18;;;;;;;2.30;1.90;;;5.70;99.90;;;;;;5047270;28;20921;-70
2021/03/14 07:46:46;;;;;;;6.00;3.90;;;5.60;99.90;;;;;;5042055;28;20479;-70
2021/03/14 07:49:14;;;;;;;4.90;3.03;;;5.60;99.90;;;;;;5043373;28;20466;-70
2021/03/14 07:51:45;;;;;;;3.97;2.37;;;5.70;99.90;;;;;;5045588;28;20597;-71
2021/03/14 07:54:16;;;;;;;6.93;4.00;;;5.80;99.90;;;;;;5042066;28;20447;-70
2021/03/14 07:56:46;;;;;;;8.30;4.60;;;5.70;99.90;;;;;;5041798;28;21492;-71
2021/03/14 07:59:14;;;;;;;4.40;3.37;;;5.70;99.90;;;;;;5039548;28;20469;-71
2021/03/14 08:01:42;;;;;;;8.83;5.67;;;5.50;99.90;;;;;;5037355;28;20872;-71
2021/03/14 08:04:30;;;;;;;4.90;4.10;;;5.50;99.90;;;;;;5046787;28;20922;-70
2021/03/14 08:06:57;;;;;;;5.70;3.63;;;5.40;99.90;;;;;;5045766;28;20467;-70
2021/03/14 08:09:46;;;;;;;9.27;5.60;;;5.30;99.90;;;;;;5044787;28;20436;-71
2021/03/14 08:12:21;;;;;;;8.23;4.20;;;5.30;99.90;;;;;;5044185;28;20446;-70
2021/03/14 08:14:51;;;;;;;6.13;4.40;;;5.20;99.90;;;;;;5048871;28;20926;-71
2021/03/14 08:17:20;;;;;;;3.67;3.33;;;5.10;99.90;;;;;;5045720;28;20462;-70
2021/03/14 08:19:49;;;;;;;7.20;4.47;;;5.10;99.90;;;;;;5046003;28;20476;-71
2021/03/14 08:22:49;;;;;;;17.60;6.90;;;5.20;99.90;;;;;;5038590;28;20922;-70
2021/03/14 08:25:21;;;;;;;5.60;3.67;;;5.30;99.90;;;;;;4972100;28;20448;-70
2021/03/14 08:27:49;;;;;;;5.30;2.97;;;5.30;99.90;;;;;;5040589;28;20434;-70
2021/03/14 08:30:45;;;;;;;5.33;3.30;;;5.10;99.90;;;;;;5054388;28;20458;-71
2021/03/14 08:33:40;;;;;;;3.47;3.17;;;5.00;99.90;;;;;;5057403;28;20520;-70
2021/03/14 08:36:09;;;;;;;4.10;3.17;;;4.90;99.90;;;;;;5048576;28;20457;-70
2021/03/14 08:38:43;;;;;;;3.73;3.47;;;4.80;99.90;;;;;;5049762;28;20604;-70
2021/03/14 08:41:25;;;;;;;4.50;3.20;;;5.00;99.90;;;;;;5044007;28;20778;-71
2021/03/14 08:43:54;;;;;;;6.33;3.60;;;5.00;99.90;;;;;;5047034;28;21038;-70
2021/03/14 08:47:06;;;;;;;5.07;4.00;;;5.10;99.90;;;;;;5046188;28;20539;-70
2021/03/14 08:49:45;;;;;;;3.50;3.20;;;4.90;99.90;;;;;;5042928;28;20469;-71
2021/03/14 08:52:13;;;;;;;5.33;2.87;;;4.70;99.90;;;;;;5043798;28;20626;-71
2021/03/14 08:54:42;;;;;;;7.50;3.50;;;4.60;99.90;;;;;;5050399;28;20421;-71
2021/03/14 08:57:10;;;;;;;4.50;2.20;;;4.80;99.90;;;;;;5040879;28;20525;-71
2021/03/14 08:59:44;;;;;;;6.47;4.00;;;4.90;99.90;;;;;;5043303;28;20429;-71
2021/03/14 09:02:19;;;;;;;3.57;2.33;;;5.00;99.90;;;;;;5045364;28;21015;-72
2021/03/14 09:04:48;;;;;;;4.00;3.10;;;5.10;99.90;;;;;;5045917;28;20935;-72
2021/03/14 09:07:14;;;;;;;5.47;3.07;;;5.00;99.90;;;;;;5015793;28;20840;-71
2021/03/14 09:09:41;;;;;;;2.30;2.10;;;4.90;99.90;;;;;;5030030;28;23179;-71
2021/03/14 09:12:11;;;;;;;4.30;3.23;;;4.90;99.90;;;;;;5042181;28;20462;-72
2021/03/14 09:14:40;;;;;;;6.20;2.80;;;5.00;99.90;;;;;;5042114;28;20429;-69
2021/03/14 09:17:10;;;;;;;2.80;2.60;;;5.00;99.90;;;;;;5048072;28;20952;-70
2021/03/14 09:19:40;;;;;;;2.30;1.63;;;5.20;99.90;;;;;;5045873;28;20410;-70
2021/03/14 09:22:08;;;;;;;5.03;4.53;;;5.30;99.90;;;;;;5049411;28;20498;-70
2021/03/14 09:24:41;;;;;;;4.07;3.60;;;5.30;99.90;;;;;;5049407;28;20430;-70
2021/03/14 09:27:10;;;;;;;4.37;3.90;;;5.20;99.90;;;;;;5045916;28;20453;-70
2021/03/14 09:29:43;;;;;;;5.90;3.67;;;5.30;99.90;;;;;;5044329;28;21192;-70
2021/03/14 09:32:19;;;;;;;3.93;3.17;;;5.20;99.90;;;;;;5046550;28;21617;-70
2021/03/14 09:34:47;;;;;;;4.27;3.73;;;5.20;99.90;;;;;;5049387;28;20418;-69
2021/03/14 09:37:27;;;;;;;4.87;3.23;;;5.30;99.90;;;;;;5034407;28;20483;-71
2021/03/14 09:40:11;;;;;;;4.17;3.43;;;5.40;99.90;;;;;;5048512;28;20837;-71
2021/03/14 09:42:38;;;;;;;7.03;4.60;;;5.30;99.90;;;;;;5052354;28;20949;-70
2021/03/14 09:45:08;;;;;;;5.33;3.40;;;5.40;99.90;;;;;;5052186;28;20942;-71
2021/03/14 09:47:35;;;;;;;11.43;4.53;;;5.50;99.90;;;;;;5042816;28;20489;-72
2021/03/14 09:50:06;;;;;;;6.50;5.07;;;5.50;99.90;;;;;;5049062;28;20445;-70
2021/03/14 09:52:34;;;;;;;6.90;5.50;;;5.50;99.90;;;;;;5046208;28;20925;-70
2021/03/14 09:55:00;;;;;;;4.33;3.40;;;5.70;99.90;;;;;;5044055;28;20782;-70
2021/03/14 09:57:27;;;;;;;5.17;4.17;;;5.70;99.90;;;;;;5042028;28;20576;-70
2021/03/14 09:59:57;;;;;;;5.53;4.53;;;5.60;99.90;;;;;;5030343;28;20985;-71
2021/03/14 10:02:24;;;;;;;5.87;3.40;;;5.40;99.90;;;;;;5048841;28;21252;-71
2021/03/14 10:04:50;;;;;;;9.40;5.93;;;5.50;99.90;;;;;;5042111;28;20438;-70
2021/03/14 10:07:22;;;;;;;9.43;4.40;;;5.50;99.90;;;;;;5036684;28;20528;-71
2021/03/14 10:09:49;;;;;;;5.07;4.03;;;5.70;99.90;;;;;;5040871;28;20473;-71
2021/03/14 10:12:16;;;;;;;4.53;4.03;;;5.70;99.90;;;;;;5031052;28;20549;-70
2021/03/14 10:14:43;;;;;;;4.93;4.47;;;5.70;99.90;;;;;;5043814;28;20473;-71
2021/03/14 10:17:12;;;;;;;13.07;7.27;;;5.60;99.90;;;;;;5036356;28;20475;-70
2021/03/14 10:19:39;;;;;;;15.03;3.50;;;5.60;99.90;;;;;;5040299;28;20421;-70
2021/03/14 10:22:06;;;;;;;8.87;6.80;;;5.60;99.90;;;;;;5040574;28;20563;-70
2021/03/14 10:24:44;;;;;;;5.97;5.43;;;5.70;99.90;;;;;;5042044;28;20471;-71
2021/03/14 10:27:11;;;;;;;7.47;4.10;;;5.90;99.90;;;;;;5045604;28;20962;-70
2021/03/14 10:29:40;;;;;;;10.47;7.30;;;6.10;99.90;;;;;;5049849;28;20478;-71
2021/03/14 10:32:19;;;;;;;3.13;2.60;;;6.30;99.90;;;;;;5037538;28;20471;-71
2021/03/14 10:34:51;;;;;;;6.90;6.07;;;6.50;99.90;;;;;;5032808;28;20434;-70
2021/03/14 10:37:29;;;;;;;6.50;5.17;;;6.50;99.90;;;;;;5048710;28;20475;-70
2021/03/14 10:40:04;;;;;;;7.23;4.47;;;6.50;99.90;;;;;;5035359;28;20461;-70
2021/03/14 10:42:32;;;;;;;9.17;6.30;;;6.40;99.90;;;;;;5041017;28;21020;-69
2021/03/14 10:45:11;;;;;;;9.83;6.33;;;6.40;99.90;;;;;;5034574;28;20459;-70
2021/03/14 10:47:38;;;;;;;8.60;4.90;;;6.40;99.90;;;;;;5032616;28;20529;-71
2021/03/14 10:50:13;;;;;;;11.67;8.57;;;6.50;99.90;;;;;;5041407;28;20465;-71
2021/03/14 10:52:40;;;;;;;12.13;8.10;;;6.30;99.90;;;;;;5043409;28;20453;-70
2021/03/14 10:55:26;;;;;;;3.23;2.80;;;6.30;99.90;;;;;;5040411;28;20506;-70
2021/03/14 10:58:05;;;;;;;11.70;7.40;;;6.50;99.90;;;;;;5037467;28;20508;-71
2021/03/14 11:00:32;;;;;;;12.00;6.23;;;6.60;99.90;;;;;;5035369;28;20536;-69
2021/03/14 11:03:00;;;;;;;9.30;5.37;;;6.80;99.90;;;;;;5036175;28;20486;-69
2021/03/14 11:05:27;;;;;;;8.17;7.37;;;6.70;99.90;;;;;;5035342;28;22174;-70
2021/03/14 11:08:02;;;;;;;13.23;8.57;;;6.80;99.90;;;;;;5034341;28;20490;-70
2021/03/14 11:10:30;;;;;;;20.97;10.60;;;6.80;99.90;;;;;;5037419;28;20444;-71
2021/03/14 11:12:57;;;;;;;11.20;7.13;;;6.90;99.90;;;;;;5033436;28;20633;-70
2021/03/14 11:15:27;;;;;;;8.70;4.10;;;7.00;99.90;;;;;;5015732;28;20550;-70
2021/03/14 11:17:54;;;;;;;7.60;4.23;;;7.10;99.90;;;;;;5034197;28;20449;-70
2021/03/14 11:20:22;;;;;;;13.70;6.77;;;7.00;99.90;;;;;;5037206;28;20485;-69
2021/03/14 11:22:50;;;;;;;12.77;6.07;;;6.90;99.90;;;;;;5039649;28;20521;-69
2021/03/14 11:25:18;;;;;;;10.03;8.67;;;6.80;99.90;;;;;;5036549;28;20470;-70
2021/03/14 11:27:46;;;;;;;18.73;8.10;;;6.90;99.90;;;;;;5038112;28;20476;-70
2021/03/14 11:30:14;;;;;;;9.70;5.57;;;7.10;99.90;;;;;;5034262;28;20494;-70
2021/03/14 11:32:41;;;;;;;10.97;8.90;;;7.20;99.90;;;;;;5034772;28;20499;-70
2021/03/14 11:35:09;;;;;;;12.90;9.23;;;7.40;99.90;;;;;;5030426;28;20463;-70
2021/03/14 11:37:35;;;;;;;8.03;6.73;;;7.60;99.90;;;;;;5038596;28;20454;-70
2021/03/14 11:40:03;;;;;;;10.90;8.47;;;7.80;99.90;;;;;;5036008;28;20507;-70
2021/03/14 11:42:29;;;;;;;8.73;7.70;;;7.80;99.90;;;;;;5035454;28;20545;-70
2021/03/14 11:44:57;;;;;;;9.13;5.17;;;8.10;99.90;;;;;;5041652;28;21001;-70
2021/03/14 11:47:24;;;;;;;8.53;5.90;;;8.40;99.90;;;;;;5039566;28;20514;-71
2021/03/14 11:49:51;;;;;;;7.73;5.30;;;8.50;99.90;;;;;;5039226;28;20488;-71
2021/03/14 11:52:18;;;;;;;6.47;5.33;;;8.40;99.90;;;;;;5032712;28;20433;-69
2021/03/14 11:54:45;;;;;;;6.93;6.23;;;8.70;99.90;;;;;;5038886;28;20435;-70
2021/03/14 11:57:11;;;;;;;6.77;5.40;;;8.80;99.90;;;;;;5035745;28;20429;-71
2021/03/14 11:59:38;;;;;;;8.60;5.40;;;8.90;99.90;;;;;;5035607;28;20568;-70
2021/03/14 12:02:07;;;;;;;7.50;6.00;;;9.00;99.90;;;;;;5038823;28;20507;-71
2021/03/14 12:04:33;;;;;;;7.60;5.90;;;9.10;99.90;;;;;;5034851;28;20544;-70
2021/03/14 12:07:00;;;;;;;10.70;6.00;;;9.30;99.90;;;;;;5031817;28;20545;-71
2021/03/14 12:09:27;;;;;;;3.60;2.90;;;9.40;99.90;;;;;;5036521;28;20467;-71
2021/03/14 12:11:54;;;;;;;11.43;8.20;;;10.00;99.90;;;;;;5038832;28;20506;-72
2021/03/14 12:14:21;;;;;;;8.67;6.37;;;10.20;99.90;;;;;;5041045;28;20926;-71
2021/03/14 12:16:48;;;;;;;11.87;5.10;;;10.40;99.90;;;;;;5037651;28;20517;-71
2021/03/14 12:19:16;;;;;;;11.33;5.87;;;10.80;99.90;;;;;;5020388;28;20534;-71
2021/03/14 12:21:43;;;;;;;10.60;7.40;;;10.70;99.90;;;;;;5038695;28;20457;-72
2021/03/14 12:24:10;;;;;;;6.97;5.93;;;11.20;99.90;;;;;;5025654;28;20464;-72
2021/03/14 12:26:37;;;;;;;12.00;8.20;;;10.90;99.90;;;;;;5041993;28;20478;-71
2021/03/14 12:29:06;;;;;;;10.87;6.50;;;10.70;99.90;;;;;;5031933;28;20476;-70
2021/03/14 12:31:33;;;;;;;10.20;6.30;;;10.50;99.90;;;;;;5045112;28;20474;-72
2021/03/14 12:34:00;;;;;;;11.80;6.10;;;10.00;99.90;;;;;;5023999;28;20803;-71
2021/03/14 12:36:27;;;;;;;4.20;2.70;;;9.80;99.90;;;;;;5037149;28;20478;-71
2021/03/14 12:38:54;;;;;;;6.50;3.67;;;9.40;99.90;;;;;;5038209;28;20534;-71
2021/03/14 12:41:21;;;;;;;8.00;6.40;;;9.40;99.90;;;;;;5024751;28;20471;-71
2021/03/14 12:43:47;;;;;;;6.57;5.40;;;9.40;99.90;;;;;;5029644;28;20542;-72
2021/03/14 12:46:14;;;;;;;11.13;5.97;;;9.30;99.90;;;;;;5022093;28;20491;-72
2021/03/14 12:48:41;;;;;;;7.40;5.07;;;9.30;99.90;;;;;;5019544;28;20438;-72
2021/03/14 12:51:08;;;;;;;8.20;6.53;;;9.40;99.90;;;;;;5034649;28;20445;-70
2021/03/14 12:53:36;;;;;;;8.07;6.50;;;9.20;99.90;;;;;;5030104;28;20601;-72
2021/03/14 12:56:03;;;;;;;6.60;4.27;;;9.10;99.90;;;;;;5031544;28;20440;-71
2021/03/14 12:58:29;;;;;;;8.17;5.97;;;9.00;99.90;;;;;;5030141;28;20976;-71
2021/03/14 13:00:56;;;;;;;6.53;4.20;;;8.80;99.90;;;;;;5025960;28;21709;-71
2021/03/14 13:03:23;;;;;;;6.43;4.30;;;8.80;99.90;;;;;;5036539;28;20434;-70
2021/03/14 13:05:50;;;;;;;2.50;2.13;;;8.60;99.90;;;;;;5024022;28;20845;-70